Time;durP1;ratioP1;P1;durP2;ratioP2;P2;SDS_P1;SDS_P2;PMS_P1;PMS_P2;Temp;Humidity;BMP_temperature;BMP_pressure;BME280_temperature;BME280_humidity;BME280_pressure;Samples;Min_cycle;Max_cycle;Signal;HPM_P1;HPM_P2
2021/12/22 00:00:19;;;;;;;35.20;17.40;;;3.30;98.50;;;;;;5066420;28;20541;-77
2021/12/22 00:02:46;;;;;;;34.80;16.83;;;3.20;98.40;;;;;;5067591;28;20059;-78
2021/12/22 00:05:22;;;;;;;39.50;18.27;;;3.20;98.50;;;;;;5067706;28;20031;-78
2021/12/22 00:07:49;;;;;;;43.83;19.63;;;3.20;98.50;;;;;;5067797;28;20028;-80
2021/12/22 00:10:15;;;;;;;41.58;19.13;;;3.20;98.50;;;;;;5067648;28;20028;-81
2021/12/22 00:12:41;;;;;;;38.88;18.35;;;3.30;98.60;;;;;;5066211;28;20036;-78
2021/12/22 00:15:08;;;;;;;38.50;19.98;;;3.30;98.60;;;;;;5066544;28;20033;-77
2021/12/22 00:17:34;;;;;;;39.00;21.02;;;3.40;98.60;;;;;;5067681;28;20051;-80
2021/12/22 00:20:00;;;;;;;45.97;21.35;;;3.40;98.60;;;;;;5067489;28;20381;-79
2021/12/22 00:22:25;;;;;;;42.05;20.35;;;3.40;98.70;;;;;;5067981;28;20029;-79
2021/12/22 00:24:52;;;;;;;50.50;20.05;;;3.40;98.80;;;;;;5066249;28;20040;-78
2021/12/22 00:27:17;;;;;;;42.10;17.88;;;3.40;98.90;;;;;;5067377;28;20033;-77
2021/12/22 00:29:47;;;;;;;42.83;20.38;;;3.50;99.00;;;;;;5065977;28;20032;-77
2021/12/22 00:32:15;;;;;;;48.38;19.90;;;3.60;99.00;;;;;;5066336;28;20074;-80
2021/12/22 00:34:49;;;;;;;42.10;19.35;;;3.70;99.10;;;;;;5066315;28;20568;-76
2021/12/22 00:37:17;;;;;;;44.47;19.92;;;3.80;99.20;;;;;;5050374;28;20400;-78
2021/12/22 00:39:44;;;;;;;48.70;19.15;;;3.90;99.10;;;;;;5067183;28;20527;-77
2021/12/22 00:42:14;;;;;;;44.10;19.77;;;4.00;99.00;;;;;;5065960;28;20527;-77
2021/12/22 00:44:41;;;;;;;44.70;19.70;;;4.00;99.00;;;;;;5066051;28;20383;-79
2021/12/22 00:47:08;;;;;;;52.10;19.83;;;3.90;99.00;;;;;;5067294;28;20506;-77
2021/12/22 00:49:34;;;;;;;35.22;17.85;;;3.90;99.10;;;;;;5065807;28;20467;-75
2021/12/22 00:52:00;;;;;;;43.30;18.05;;;4.00;99.20;;;;;;5066025;28;20078;-79
2021/12/22 00:54:26;;;;;;;38.72;18.13;;;4.00;99.20;;;;;;5067210;28;20028;-78
2021/12/22 00:56:52;;;;;;;34.67;16.45;;;4.00;99.10;;;;;;5066040;28;20024;-77
2021/12/22 00:59:18;;;;;;;34.97;17.95;;;4.00;99.10;;;;;;5067180;28;20051;-78
2021/12/22 01:01:45;;;;;;;45.53;17.33;;;4.00;99.10;;;;;;5067154;28;20478;-77
2021/12/22 01:04:11;;;;;;;38.03;18.42;;;4.00;99.20;;;;;;5065561;28;20072;-77
2021/12/22 01:06:37;;;;;;;38.00;16.80;;;4.00;99.30;;;;;;5067090;28;20031;-76
2021/12/22 01:09:04;;;;;;;38.90;17.73;;;4.10;99.40;;;;;;5070325;28;20036;-80
2021/12/22 01:11:30;;;;;;;35.50;17.15;;;4.20;99.50;;;;;;5070706;28;20475;-76
2021/12/22 01:13:56;;;;;;;40.08;17.70;;;4.20;99.50;;;;;;5069467;28;20086;-76
2021/12/22 01:16:21;;;;;;;36.30;16.15;;;4.30;99.40;;;;;;5070849;28;20078;-79
2021/12/22 01:18:47;;;;;;;41.25;16.50;;;4.20;99.30;;;;;;5070596;28;20483;-78
2021/12/22 01:21:30;;;;;;;39.00;18.13;;;4.30;99.50;;;;;;5070610;28;20036;-79
2021/12/22 01:24:10;;;;;;;45.60;16.52;;;4.30;99.50;;;;;;5070518;28;20052;-80
2021/12/22 01:26:41;;;;;;;46.40;16.77;;;4.30;99.50;;;;;;5070530;28;20034;-78
2021/12/22 01:29:07;;;;;;;40.45;18.10;;;4.30;99.50;;;;;;5069080;28;20036;-79
2021/12/22 01:31:33;;;;;;;31.40;13.80;;;4.30;99.70;;;;;;5070433;28;20368;-77
2021/12/22 01:33:59;;;;;;;30.70;13.68;;;4.40;99.90;;;;;;5069172;28;20033;-77
2021/12/22 01:36:24;;;;;;;39.08;15.57;;;4.60;99.90;;;;;;5069021;28;20068;-78
2021/12/22 01:38:50;;;;;;;30.52;13.48;;;4.70;99.90;;;;;;5052219;28;20037;-80
2021/12/22 01:41:16;;;;;;;38.75;14.00;;;4.90;99.90;;;;;;5069109;28;20035;-76
2021/12/22 01:43:42;;;;;;;35.40;13.98;;;5.00;99.90;;;;;;5070110;28;20071;-78
2021/12/22 01:49:16;;;;;;;36.78;14.23;;;5.20;99.90;;;;;;5070337;28;20221;-76
2021/12/22 01:52:11;;;;;;;37.53;15.20;;;5.20;99.90;;;;;;5070030;28;20471;-79
2021/12/22 01:54:50;;;;;;;33.95;14.38;;;5.30;99.90;;;;;;5060075;28;20086;-80
2021/12/22 01:57:17;;;;;;;34.90;15.57;;;5.30;99.80;;;;;;5069912;28;20070;-78
2021/12/22 01:59:45;;;;;;;39.15;15.15;;;5.30;99.80;;;;;;5069773;28;20031;-77
2021/12/22 02:02:12;;;;;;;35.47;15.65;;;5.30;99.80;;;;;;5069653;28;20024;-78
2021/12/22 02:04:38;;;;;;;36.67;16.13;;;5.30;99.80;;;;;;5051879;28;20037;-77
2021/12/22 02:07:05;;;;;;;40.53;15.90;;;5.30;99.80;;;;;;5069832;28;20036;-77
2021/12/22 02:12:16;;;;;;;33.47;13.73;;;5.30;99.80;;;;;;5069894;28;20501;-78
2021/12/22 02:14:42;;;;;;;37.92;16.65;;;5.30;99.80;;;;;;5069991;28;20033;-79
2021/12/22 02:17:10;;;;;;;37.47;13.70;;;5.40;99.80;;;;;;5069519;28;20043;-79
2021/12/22 02:19:41;;;;;;;31.08;13.80;;;5.40;99.80;;;;;;5068987;28;20033;-79
2021/12/22 02:22:10;;;;;;;29.85;14.10;;;5.40;99.80;;;;;;5069495;28;20032;-77
2021/12/22 02:24:36;;;;;;;32.83;14.65;;;5.40;99.80;;;;;;5068182;28;20028;-78
2021/12/22 02:27:08;;;;;;;26.25;12.77;;;5.50;99.80;;;;;;5069471;28;20048;-78
2021/12/22 02:29:37;;;;;;;32.13;13.77;;;5.50;99.90;;;;;;5069306;28;20043;-77
2021/12/22 02:32:13;;;;;;;27.42;11.82;;;5.50;99.70;;;;;;5069319;28;20150;-77
2021/12/22 02:34:46;;;;;;;32.78;11.77;;;5.50;99.70;;;;;;5069143;28;20542;-77
2021/12/22 02:37:16;;;;;;;28.67;12.25;;;5.40;99.80;;;;;;5069290;28;20039;-78
2021/12/22 02:39:58;;;;;;;25.70;11.30;;;5.40;99.80;;;;;;5069098;28;20017;-78
2021/12/22 02:42:28;;;;;;;30.88;12.23;;;5.40;99.80;;;;;;5069008;28;20029;-76
2021/12/22 02:44:54;;;;;;;27.70;12.63;;;5.40;99.70;;;;;;5051117;28;20024;-78
2021/12/22 02:47:23;;;;;;;27.63;11.90;;;5.40;99.80;;;;;;5068722;28;20162;-77
2021/12/22 02:49:49;;;;;;;26.48;11.63;;;5.50;99.90;;;;;;5067578;28;20032;-77
2021/12/22 02:52:15;;;;;;;;;;;5.50;99.90;;;;;;5069299;28;20021;-78
2021/12/22 02:54:53;;;;;;;34.42;10.65;;;5.60;99.90;;;;;;5068790;28;20475;-78
2021/12/22 02:57:25;;;;;;;28.20;11.93;;;5.70;99.90;;;;;;5068857;28;20024;-77
2021/12/22 03:02:59;;;;;;;29.73;12.75;;;5.80;99.90;;;;;;5068541;28;20040;-76
2021/12/22 03:05:26;;;;;;;29.55;13.40;;;5.80;99.90;;;;;;5068722;28;20033;-77
2021/12/22 03:07:51;;;;;;;24.85;11.20;;;5.80;99.90;;;;;;5050806;28;20764;-76
2021/12/22 03:10:18;;;;;;;32.28;12.32;;;5.80;99.80;;;;;;5067359;28;20029;-78
2021/12/22 03:12:51;;;;;;;;;;;5.80;99.90;;;;;;5067705;28;20455;-81
2021/12/22 03:15:18;;;;;;;24.98;10.00;;;5.80;99.90;;;;;;5068446;28;19910;-77
2021/12/22 03:17:44;;;;;;;28.35;11.57;;;5.80;99.90;;;;;;5068350;28;20032;-77
2021/12/22 03:20:12;;;;;;;26.60;9.95;;;5.90;99.90;;;;;;5066998;28;20031;-78
2021/12/22 03:22:38;;;;;;;23.77;10.40;;;5.90;99.90;;;;;;5068398;28;20041;-77
2021/12/22 03:25:16;;;;;;;31.58;11.32;;;5.90;99.90;;;;;;5050484;28;20024;-77
2021/12/22 03:27:50;;;;;;;26.67;10.90;;;5.90;99.90;;;;;;5068322;28;20112;-77
2021/12/22 03:30:20;;;;;;;26.25;9.50;;;5.90;99.90;;;;;;5066021;28;20032;-80
2021/12/22 03:32:46;;;;;;;24.30;9.63;;;6.00;99.90;;;;;;5068113;28;20150;-78
2021/12/22 03:35:16;;;;;;;34.17;11.60;;;6.10;99.90;;;;;;5068077;28;20132;-80
2021/12/22 03:37:43;;;;;;;25.95;10.60;;;6.10;99.90;;;;;;5068068;28;20587;-77
2021/12/22 03:40:09;;;;;;;31.20;11.88;;;6.20;99.90;;;;;;5066619;28;20114;-77
2021/12/22 03:42:35;;;;;;;26.15;11.52;;;6.20;99.90;;;;;;5066686;28;20078;-79
2021/12/22 03:45:01;;;;;;;27.60;11.65;;;6.20;99.90;;;;;;5068143;28;20028;-78
2021/12/22 03:47:27;;;;;;;26.52;9.05;;;6.20;99.90;;;;;;5066737;28;20060;-78
2021/12/22 03:49:52;;;;;;;33.78;11.23;;;6.30;99.90;;;;;;5066553;28;20022;-79
2021/12/22 03:52:18;;;;;;;26.50;11.38;;;6.30;99.90;;;;;;5067894;28;20033;-76
2021/12/22 03:54:44;;;;;;;24.02;10.05;;;6.40;99.90;;;;;;5066452;28;20487;-77
2021/12/22 03:57:10;;;;;;;28.25;11.13;;;6.40;99.90;;;;;;5067892;28;20032;-78
2021/12/22 03:59:35;;;;;;;28.52;12.00;;;6.50;99.80;;;;;;5067682;28;20072;-78
2021/12/22 04:02:01;;;;;;;27.85;11.10;;;6.50;99.70;;;;;;5067527;28;20032;-76
2021/12/22 04:04:27;;;;;;;26.90;11.32;;;6.50;99.70;;;;;;5066437;28;20250;-75
2021/12/22 04:06:53;;;;;;;30.17;10.77;;;6.60;99.60;;;;;;5066436;28;20028;-76
2021/12/22 04:09:26;;;;;;;27.23;11.45;;;6.60;99.50;;;;;;5067565;28;20039;-76
2021/12/22 04:11:52;;;;;;;24.80;9.90;;;6.60;99.50;;;;;;5067556;28;20039;-77
2021/12/22 04:14:17;;;;;;;27.02;10.18;;;6.60;99.40;;;;;;5049768;28;20470;-78
2021/12/22 04:16:43;;;;;;;29.20;11.65;;;6.70;99.40;;;;;;5067599;28;20028;-77
2021/12/22 04:19:09;;;;;;;32.40;11.32;;;6.60;99.30;;;;;;5066436;28;20020;-76
2021/12/22 04:21:34;;;;;;;32.13;10.80;;;6.60;99.30;;;;;;5067759;28;20056;-76
2021/12/22 04:24:01;;;;;;;23.85;10.77;;;6.60;99.20;;;;;;5067483;28;20479;-77
2021/12/22 04:26:30;;;;;;;30.63;11.02;;;6.60;99.20;;;;;;5066065;28;20036;-77
2021/12/22 04:28:56;;;;;;;27.27;11.40;;;6.60;99.10;;;;;;5067519;28;20025;-76
2021/12/22 04:31:22;;;;;;;28.77;11.77;;;6.60;99.10;;;;;;5067404;28;20146;-76
2021/12/22 04:33:47;;;;;;;28.98;10.85;;;6.60;99.10;;;;;;5067397;28;20024;-75
2021/12/22 04:36:13;;;;;;;28.20;11.35;;;6.60;99.10;;;;;;5049437;28;20029;-75
2021/12/22 04:38:39;;;;;;;27.02;11.82;;;6.60;99.00;;;;;;5049500;28;20060;-75
2021/12/22 04:41:04;;;;;;;30.58;11.63;;;6.50;99.00;;;;;;5066444;28;20368;-77
2021/12/22 04:43:30;;;;;;;27.00;11.35;;;6.50;99.20;;;;;;5071186;28;20028;-76
2021/12/22 04:45:56;;;;;;;31.02;12.15;;;6.50;99.00;;;;;;5071219;28;20477;-78
2021/12/22 04:48:22;;;;;;;35.15;12.63;;;6.50;99.00;;;;;;5070964;28;20035;-77
2021/12/22 04:50:48;;;;;;;35.05;11.68;;;6.50;99.00;;;;;;5071051;28;20036;-78
2021/12/22 04:53:26;;;;;;;31.88;12.10;;;6.60;99.00;;;;;;5071103;28;20086;-75
2021/12/22 04:55:52;;;;;;;30.30;11.25;;;6.60;99.00;;;;;;5069540;28;20067;-77
2021/12/22 04:58:18;;;;;;;31.50;11.77;;;6.60;99.00;;;;;;5069506;28;20028;-74
2021/12/22 05:00:43;;;;;;;28.38;11.15;;;6.70;99.00;;;;;;5069470;28;20568;-76
2021/12/22 05:03:09;;;;;;;28.05;10.77;;;6.80;99.00;;;;;;5069380;28;20070;-78
2021/12/22 05:05:35;;;;;;;34.08;11.77;;;6.80;98.90;;;;;;5071363;28;20037;-76
2021/12/22 05:08:01;;;;;;;26.48;11.25;;;6.80;98.80;;;;;;5069365;28;20063;-76
2021/12/22 05:10:27;;;;;;;29.00;9.75;;;6.90;98.80;;;;;;5070814;28;20071;-77
2021/12/22 05:12:53;;;;;;;;;;;6.90;98.80;;;;;;5071144;28;20494;-76
2021/12/22 05:15:21;;;;;;;23.27;10.07;;;6.90;98.80;;;;;;5070735;28;19904;-77
2021/12/22 05:20:16;;;;;;;25.67;8.98;;;7.00;98.70;;;;;;5070663;28;20119;-76
2021/12/22 05:22:42;;;;;;;23.25;9.90;;;7.00;98.70;;;;;;5068998;28;20467;-78
2021/12/22 05:25:10;;;;;;;24.20;10.55;;;7.10;98.70;;;;;;5070410;28;20036;-77
2021/12/22 05:27:36;;;;;;;24.15;9.88;;;7.10;98.70;;;;;;5070495;28;20451;-75
2021/12/22 05:30:05;;;;;;;25.20;9.45;;;7.10;98.70;;;;;;5070368;28;20375;-77
2021/12/22 05:32:32;;;;;;;26.30;10.40;;;7.10;98.70;;;;;;5070447;28;20112;-76
2021/12/22 05:35:03;;;;;;;22.48;9.40;;;7.10;98.70;;;;;;5070551;28;20374;-80
2021/12/22 05:37:29;;;;;;;21.95;9.82;;;7.10;98.70;;;;;;5070251;28;20029;-79
2021/12/22 05:39:57;;;;;;;34.05;10.98;;;7.20;98.70;;;;;;5052280;28;20471;-74
2021/12/22 05:42:27;;;;;;;23.02;9.35;;;7.20;98.70;;;;;;5070069;28;20029;-78
2021/12/22 05:44:53;;;;;;;29.52;9.95;;;7.20;98.70;;;;;;5068574;28;20025;-77
2021/12/22 05:47:19;;;;;;;;;;;7.20;98.70;;;;;;5070461;28;20434;-75
2021/12/22 05:49:45;;;;;;;29.65;11.23;;;7.20;98.80;;;;;;5070062;28;19936;-75
2021/12/22 05:52:11;;;;;;;29.50;10.30;;;7.30;98.80;;;;;;5068773;28;20029;-79
2021/12/22 05:54:37;;;;;;;;;;;7.30;98.80;;;;;;5069409;28;20067;-75
2021/12/22 05:57:03;;;;;;;30.10;9.48;;;7.30;98.80;;;;;;5068402;28;20366;-76
2021/12/22 05:59:29;;;;;;;23.60;9.43;;;7.30;98.70;;;;;;5069836;28;20024;-76
2021/12/22 06:01:54;;;;;;;24.98;10.68;;;7.30;98.70;;;;;;5069730;28;20033;-76
2021/12/22 06:04:20;;;;;;;25.15;9.88;;;7.30;98.80;;;;;;5069541;28;20057;-78
2021/12/22 06:06:46;;;;;;;28.13;11.43;;;7.30;98.80;;;;;;5051661;28;20171;-77
2021/12/22 06:09:11;;;;;;;26.33;11.13;;;7.30;98.80;;;;;;5068410;28;20306;-77
2021/12/22 06:11:37;;;;;;;30.15;10.65;;;7.40;98.80;;;;;;5069702;28;20033;-76
2021/12/22 06:14:03;;;;;;;31.10;10.43;;;7.40;98.80;;;;;;5068315;28;20033;-79
2021/12/22 06:16:30;;;;;;;31.77;10.75;;;7.40;98.80;;;;;;5069363;28;20576;-76
2021/12/22 06:19:02;;;;;;;33.15;11.90;;;7.40;98.80;;;;;;5069343;28;20028;-77
2021/12/22 06:21:29;;;;;;;25.15;10.57;;;7.40;98.80;;;;;;5069411;28;20425;-77
2021/12/22 06:23:55;;;;;;;26.95;11.15;;;7.40;98.90;;;;;;5069168;28;20044;-76
2021/12/22 06:26:21;;;;;;;30.88;11.75;;;7.40;98.90;;;;;;5069130;28;20056;-75
2021/12/22 06:28:46;;;;;;;36.88;11.63;;;7.40;98.90;;;;;;5067749;28;20029;-76
2021/12/22 06:31:12;;;;;;;27.30;11.23;;;7.30;99.00;;;;;;5067972;28;20494;-77
2021/12/22 06:33:39;;;;;;;25.13;13.05;;;7.20;99.10;;;;;;5069095;28;20068;-76
2021/12/22 06:36:05;;;;;;;29.05;12.50;;;7.20;99.30;;;;;;5067931;28;20051;-75
2021/12/22 06:38:31;;;;;;;23.60;11.73;;;7.20;99.40;;;;;;5067985;28;20029;-78
2021/12/22 06:40:57;;;;;;;36.20;19.38;;;7.10;99.30;;;;;;5069076;28;20052;-76
2021/12/22 06:43:24;;;;;;;28.55;20.10;;;7.10;99.40;;;;;;5068955;28;20455;-76
2021/12/22 06:45:49;;;;;;;41.10;30.92;;;7.00;99.50;;;;;;5069148;28;20025;-76
2021/12/22 06:48:15;;;;;;;42.05;31.35;;;7.00;99.60;;;;;;5068670;28;20107;-77
2021/12/22 06:50:41;;;;;;;45.78;35.50;;;7.00;99.70;;;;;;5067492;28;20060;-77
2021/12/22 06:53:06;;;;;;;45.70;33.95;;;7.00;99.70;;;;;;5050774;28;20638;-76
2021/12/22 06:55:32;;;;;;;45.38;36.58;;;7.00;99.80;;;;;;5068657;28;20111;-77
2021/12/22 06:57:59;;;;;;;46.15;36.00;;;6.90;99.80;;;;;;5067339;28;20029;-76
2021/12/22 07:00:25;;;;;;;44.75;35.55;;;6.90;99.90;;;;;;5068340;28;20033;-75
2021/12/22 07:02:52;;;;;;;47.22;36.03;;;6.90;99.90;;;;;;5068217;28;20567;-76
2021/12/22 07:05:18;;;;;;;37.72;33.13;;;6.90;99.90;;;;;;5049966;28;20029;-76
2021/12/22 07:07:44;;;;;;;46.63;39.30;;;6.90;99.90;;;;;;5068468;28;20043;-76
2021/12/22 07:10:10;;;;;;;41.95;36.83;;;6.90;99.90;;;;;;5068505;28;20037;-76
2021/12/22 07:12:39;;;;;;;44.47;36.95;;;6.90;99.90;;;;;;5068138;28;20444;-75
2021/12/22 07:15:06;;;;;;;48.05;37.08;;;6.80;99.90;;;;;;5068252;28;20486;-76
2021/12/22 07:17:32;;;;;;;52.17;38.53;;;6.80;99.90;;;;;;5068228;28;20074;-76
2021/12/22 07:19:57;;;;;;;41.03;34.67;;;6.80;99.90;;;;;;5050371;28;20538;-77
2021/12/22 07:22:23;;;;;;;44.35;36.13;;;6.80;99.90;;;;;;5068066;28;20046;-78
2021/12/22 07:24:49;;;;;;;61.92;40.97;;;6.90;99.90;;;;;;5068055;28;20086;-77
2021/12/22 07:27:15;;;;;;;47.88;37.38;;;6.80;99.90;;;;;;5068074;28;20074;-77
2021/12/22 07:29:41;;;;;;;49.88;38.22;;;6.80;99.90;;;;;;5067803;28;20376;-76
2021/12/22 07:32:08;;;;;;;53.15;38.83;;;6.80;99.90;;;;;;5067862;28;20559;-75
2021/12/22 07:34:41;;;;;;;57.50;40.55;;;6.90;99.90;;;;;;5066833;28;20462;-76
2021/12/22 07:37:19;;;;;;;48.92;38.53;;;6.80;99.90;;;;;;5067672;28;20475;-77
2021/12/22 07:39:44;;;;;;;49.58;37.55;;;6.80;99.90;;;;;;5066361;28;20048;-77
2021/12/22 07:42:10;;;;;;;59.70;39.78;;;6.80;99.90;;;;;;5067875;28;20020;-78
2021/12/22 07:44:36;;;;;;;44.95;38.50;;;6.80;99.90;;;;;;5066381;28;20075;-77
2021/12/22 07:47:02;;;;;;;39.05;35.13;;;6.80;99.90;;;;;;5067821;28;20017;-75
2021/12/22 07:49:27;;;;;;;29.30;26.40;;;6.80;99.90;;;;;;5066368;28;20043;-76
2021/12/22 07:51:53;;;;;;;34.90;32.00;;;6.80;99.90;;;;;;5067680;28;20031;-76
2021/12/22 07:54:19;;;;;;;38.20;34.33;;;6.80;99.90;;;;;;5066308;28;20131;-77
2021/12/22 07:56:45;;;;;;;55.63;38.28;;;6.90;99.90;;;;;;5067344;28;20036;-77
2021/12/22 07:59:10;;;;;;;60.22;36.03;;;6.90;99.90;;;;;;5067505;28;20040;-76
2021/12/22 08:01:36;;;;;;;38.53;34.30;;;6.90;99.90;;;;;;5067922;28;20036;-76
2021/12/22 08:04:02;;;;;;;28.45;25.90;;;6.90;99.90;;;;;;5066174;28;20083;-75
2021/12/22 08:06:28;;;;;;;26.30;23.70;;;6.90;99.90;;;;;;5067776;28;20107;-74
2021/12/22 08:08:54;;;;;;;33.40;30.60;;;6.90;99.90;;;;;;5067631;28;20154;-77
2021/12/22 08:11:19;;;;;;;33.95;30.85;;;6.90;99.90;;;;;;5067367;28;20154;-76
2021/12/22 08:13:45;;;;;;;30.98;27.90;;;6.90;99.90;;;;;;5066036;28;20035;-76
2021/12/22 08:16:11;;;;;;;31.70;29.15;;;6.90;99.90;;;;;;5067022;28;20047;-75
2021/12/22 08:18:37;;;;;;;33.50;30.77;;;6.90;99.90;;;;;;5067075;28;20028;-77
2021/12/22 08:21:02;;;;;;;33.00;30.58;;;6.90;99.90;;;;;;5067301;28;20107;-78
2021/12/22 08:23:28;;;;;;;32.53;29.50;;;6.90;99.90;;;;;;5067223;28;20062;-75
2021/12/22 08:25:54;;;;;;;26.38;24.05;;;6.90;99.90;;;;;;5065965;28;20119;-76
2021/12/22 08:28:20;;;;;;;28.48;26.30;;;6.90;99.90;;;;;;5065830;28;20028;-76
2021/12/22 08:30:46;;;;;;;28.45;26.15;;;6.90;99.90;;;;;;5065794;28;20032;-75
2021/12/22 08:33:24;;;;;;;29.30;26.63;;;6.90;99.90;;;;;;5067596;28;20025;-80
2021/12/22 08:38:50;;;;;;;22.80;20.70;;;7.00;99.90;;;;;;5067290;28;20059;-76
2021/12/22 08:41:47;;;;;;;24.17;22.17;;;6.90;99.90;;;;;;5065929;28;20548;-79
2021/12/22 08:44:14;;;;;;;26.50;24.57;;;6.90;99.90;;;;;;5065214;28;20051;-75
2021/12/22 08:46:43;;;;;;;29.65;27.50;;;6.90;99.90;;;;;;5066914;28;20035;-75
2021/12/22 08:49:09;;;;;;;29.52;26.92;;;6.90;99.90;;;;;;5066544;28;20025;-75
2021/12/22 08:51:35;;;;;;;29.23;26.73;;;6.90;99.90;;;;;;5065206;28;20032;-76
2021/12/22 08:54:01;;;;;;;;;;;6.90;99.90;;;;;;5066956;28;20053;-76
2021/12/22 08:56:28;;;;;;;30.33;27.83;;;7.00;99.90;;;;;;5065271;28;19911;-75
2021/12/22 08:58:54;;;;;;;29.33;26.83;;;7.00;99.90;;;;;;5066090;28;20075;-74
2021/12/22 09:01:25;;;;;;;29.50;27.45;;;7.00;99.90;;;;;;5048565;28;20060;-76
2021/12/22 09:03:50;;;;;;;27.38;25.17;;;7.00;99.90;;;;;;5065977;28;20085;-75
2021/12/22 09:06:17;;;;;;;27.58;25.10;;;7.00;99.90;;;;;;5066488;28;20655;-74
2021/12/22 09:08:44;;;;;;;28.55;26.02;;;7.00;99.90;;;;;;5066331;28;20487;-75
2021/12/22 09:11:11;;;;;;;24.75;22.85;;;7.00;99.90;;;;;;5064934;28;20512;-78
2021/12/22 09:13:38;;;;;;;25.10;22.85;;;7.00;99.90;;;;;;5066378;28;20086;-74
2021/12/22 09:16:05;;;;;;;28.85;26.15;;;7.10;99.90;;;;;;5065192;28;20028;-74
2021/12/22 09:18:32;;;;;;;36.47;28.38;;;7.10;99.90;;;;;;5048210;28;20474;-76
2021/12/22 09:20:58;;;;;;;32.40;29.08;;;7.10;99.90;;;;;;5066372;28;20392;-78
2021/12/22 09:23:23;;;;;;;31.10;28.42;;;7.10;99.90;;;;;;5066469;28;20048;-76
2021/12/22 09:25:49;;;;;;;28.33;25.65;;;7.10;99.90;;;;;;5065565;28;20033;-76
2021/12/22 09:28:15;;;;;;;31.45;28.50;;;7.10;99.90;;;;;;5067245;28;20447;-77
2021/12/22 09:30:43;;;;;;;29.77;27.15;;;7.20;99.90;;;;;;5069839;28;20111;-78
2021/12/22 09:33:13;;;;;;;34.33;30.02;;;7.20;99.90;;;;;;5068846;28;20036;-76
2021/12/22 09:35:41;;;;;;;32.08;29.00;;;7.30;99.90;;;;;;5069768;28;20025;-76
2021/12/22 09:38:08;;;;;;;30.38;27.48;;;7.30;99.90;;;;;;5069662;28;20366;-78
2021/12/22 09:40:34;;;;;;;31.17;28.55;;;7.20;99.90;;;;;;5069425;28;20166;-77
2021/12/22 09:43:00;;;;;;;32.45;29.10;;;7.30;99.90;;;;;;5067907;28;20031;-75
2021/12/22 09:45:26;;;;;;;32.97;29.23;;;7.30;99.90;;;;;;5068180;28;20020;-76
2021/12/22 09:53:13;;;;;;;28.45;25.83;;;7.40;99.90;;;;;;5067829;28;20386;-77
2021/12/22 09:55:39;;;;;;;24.73;22.60;;;7.40;99.90;;;;;;5067217;28;20549;-77
2021/12/22 09:58:05;;;;;;;30.70;23.65;;;7.50;99.90;;;;;;5068340;28;20103;-77
2021/12/22 10:00:34;;;;;;;;;;;7.50;99.90;;;;;;5069409;28;20170;-76
2021/12/22 10:03:00;;;;;;;16.30;14.63;;;7.50;99.90;;;;;;5068250;28;19970;-77
2021/12/22 10:05:26;;;;;;;20.13;18.15;;;7.50;99.90;;;;;;5050353;28;20020;-77
2021/12/22 10:08:26;;;;;;;12.40;11.27;;;7.60;99.90;;;;;;5048346;28;20053;-76
2021/12/22 10:11:09;;;;;;;14.30;12.85;;;7.70;99.90;;;;;;5070494;28;20033;-79
2021/12/22 10:13:41;;;;;;;10.77;8.25;;;7.70;99.90;;;;;;5066599;28;20024;-75
2021/12/22 10:16:14;;;;;;;16.90;12.10;;;7.70;99.90;;;;;;5070542;28;20020;-77
2021/12/22 10:18:40;;;;;;;16.80;13.50;;;7.80;99.90;;;;;;5070253;28;20031;-76
2021/12/22 10:21:13;;;;;;;;;;;7.80;99.90;;;;;;5071136;28;20112;-76
2021/12/22 10:23:46;;;;;;;19.63;16.80;;;7.80;99.90;;;;;;5070194;28;19931;-76
2021/12/22 10:26:18;;;;;;;22.25;20.05;;;7.80;99.90;;;;;;5070268;28;20061;-76
2021/12/22 10:28:53;;;;;;;25.42;23.25;;;7.80;99.90;;;;;;5065799;28;20398;-75
2021/12/22 10:31:27;;;;;;;27.90;25.77;;;7.80;99.90;;;;;;5065796;28;20017;-75
2021/12/22 10:34:03;;;;;;;27.40;24.83;;;7.80;99.90;;;;;;5062220;28;20028;-75
2021/12/22 10:36:29;;;;;;;31.30;28.38;;;7.70;99.90;;;;;;5070060;28;20025;-74
2021/12/22 10:39:02;;;;;;;31.25;28.65;;;7.70;99.90;;;;;;5070183;28;20052;-76
2021/12/22 10:41:31;;;;;;;31.40;28.88;;;7.80;99.90;;;;;;5078267;28;20028;-74
2021/12/22 10:43:58;;;;;;;32.53;29.42;;;7.90;99.90;;;;;;5069628;28;20024;-76
2021/12/22 10:46:31;;;;;;;30.67;28.10;;;7.80;99.90;;;;;;5068713;28;20024;-75
2021/12/22 10:49:17;;;;;;;32.38;29.35;;;7.90;99.90;;;;;;5069607;28;20470;-76
2021/12/22 10:52:04;;;;;;;30.42;27.38;;;8.00;99.90;;;;;;5068186;28;20052;-75
2021/12/22 10:54:38;;;;;;;32.33;29.13;;;8.00;99.90;;;;;;5068428;28;20123;-74
2021/12/22 10:57:08;;;;;;;31.10;28.27;;;8.00;99.90;;;;;;5069355;28;20103;-76
2021/12/22 10:59:47;;;;;;;32.08;28.83;;;8.00;99.90;;;;;;5068967;28;20077;-79
2021/12/22 11:02:20;;;;;;;32.17;28.52;;;8.10;99.90;;;;;;5049645;28;20025;-76
2021/12/22 11:04:46;;;;;;;28.60;26.38;;;8.20;99.90;;;;;;5061823;28;20036;-77
2021/12/22 11:07:27;;;;;;;21.52;19.20;;;8.20;99.90;;;;;;5070830;28;20036;-78
2021/12/22 11:09:54;;;;;;;23.63;21.45;;;8.20;99.90;;;;;;5069723;28;20069;-78
2021/12/22 11:12:40;;;;;;;26.38;22.10;;;8.20;99.90;;;;;;5069278;28;20028;-75
2021/12/22 11:15:22;;;;;;;24.52;22.17;;;8.20;99.90;;;;;;5065445;28;20390;-76
2021/12/22 11:17:48;;;;;;;28.27;25.63;;;8.20;99.90;;;;;;5068429;28;20562;-75
2021/12/22 11:20:14;;;;;;;23.63;21.55;;;8.30;99.90;;;;;;5069077;28;20116;-76
2021/12/22 11:25:18;;;;;;;24.77;22.85;;;8.40;99.90;;;;;;5069544;28;20162;-76
2021/12/22 11:27:44;;;;;;;17.40;15.73;;;8.50;99.90;;;;;;5068893;28;20036;-71
2021/12/22 11:30:12;;;;;;;10.98;9.23;;;8.60;99.90;;;;;;5068616;28;20051;-75
2021/12/22 11:32:38;;;;;;;9.63;6.22;;;9.10;99.90;;;;;;5069308;28;20028;-74
2021/12/22 11:35:07;;;;;;;10.60;4.72;;;9.80;99.90;;;;;;5067638;28;20032;-76
2021/12/22 11:37:33;;;;;;;11.43;8.93;;;10.10;99.90;;;;;;5068810;28;20039;-75
2021/12/22 11:39:59;;;;;;;13.90;12.57;;;10.10;99.90;;;;;;5068802;28;20105;-76
2021/12/22 11:42:31;;;;;;;;;;;10.10;99.90;;;;;;5069090;28;20095;-81
2021/12/22 11:45:05;;;;;;;11.40;3.53;;;10.20;99.90;;;;;;5069122;28;20357;-72
2021/12/22 11:47:36;;;;;;;12.40;8.68;;;10.50;99.90;;;;;;5068427;28;20024;-73
2021/12/22 11:50:04;;;;;;;10.32;7.68;;;10.50;99.90;;;;;;5060689;28;20528;-73
2021/12/22 11:52:44;;;;;;;10.52;7.95;;;10.50;99.90;;;;;;5067601;28;20082;-71
2021/12/22 11:55:14;;;;;;;11.80;10.60;;;10.40;99.90;;;;;;5066280;28;20023;-73
2021/12/22 11:57:41;;;;;;;14.15;12.35;;;10.20;99.90;;;;;;5067589;28;20034;-77
2021/12/22 12:00:26;;;;;;;12.98;11.85;;;10.10;99.90;;;;;;5068173;28;20100;-75
2021/12/22 12:02:54;;;;;;;8.57;7.68;;;9.90;99.90;;;;;;5064947;28;20165;-76
2021/12/22 12:05:30;;;;;;;12.40;11.15;;;9.80;99.90;;;;;;5068322;28;20339;-75
2021/12/22 12:08:16;;;;;;;;;;;9.70;99.90;;;;;;5068999;28;20111;-76
2021/12/22 12:10:47;;;;;;;12.68;11.63;;;9.60;99.90;;;;;;5067997;28;19940;-77
2021/12/22 12:13:25;;;;;;;11.70;9.63;;;9.50;99.90;;;;;;5068441;28;20021;-77
2021/12/22 12:21:57;;;;;;;14.95;13.55;;;9.30;99.90;;;;;;5067880;28;20031;-77
2021/12/22 12:24:35;;;;;;;12.98;10.93;;;9.30;99.90;;;;;;5067324;28;20025;-79
2021/12/22 12:27:22;;;;;;;16.77;15.20;;;9.30;99.90;;;;;;5068204;28;20642;-76
2021/12/22 12:29:58;;;;;;;11.23;10.13;;;9.30;99.90;;;;;;5067951;28;20356;-76
2021/12/22 12:32:39;;;;;;;13.93;10.00;;;9.40;99.90;;;;;;5067960;28;20083;-77
2021/12/22 12:35:23;;;;;;;10.50;8.73;;;9.40;99.90;;;;;;5066418;28;20462;-76
2021/12/22 12:38:16;;;;;;;10.13;9.00;;;9.40;99.90;;;;;;5067183;28;20065;-72
2021/12/22 12:40:57;;;;;;;11.00;7.93;;;9.40;99.90;;;;;;5066225;28;20070;-72
2021/12/22 12:43:44;;;;;;;14.75;10.00;;;9.40;99.90;;;;;;5067869;28;20056;-76
2021/12/22 12:46:27;;;;;;;11.15;10.15;;;9.50;99.90;;;;;;5065973;28;20036;-77
2021/12/22 12:49:16;;;;;;;12.45;11.40;;;9.50;99.90;;;;;;5069897;28;20021;-77
2021/12/22 12:51:42;;;;;;;13.07;9.13;;;9.50;99.90;;;;;;5067889;28;20031;-77
2021/12/22 12:54:25;;;;;;;14.38;10.80;;;9.50;99.90;;;;;;5067814;28;20025;-75
2021/12/22 12:56:59;;;;;;;12.48;9.30;;;9.50;99.90;;;;;;5067552;28;20040;-80
2021/12/22 12:59:37;;;;;;;10.85;8.95;;;9.50;99.90;;;;;;5067621;28;20028;-76
2021/12/22 13:02:03;;;;;;;11.55;10.45;;;9.50;99.90;;;;;;5067292;28;20039;-78
2021/12/22 13:04:35;;;;;;;13.55;12.27;;;9.60;99.90;;;;;;5070426;28;20056;-77
2021/12/22 13:07:00;;;;;;;10.10;8.75;;;9.60;99.90;;;;;;5072365;28;20059;-76
2021/12/22 13:09:34;;;;;;;12.80;9.43;;;9.60;99.90;;;;;;5071294;28;20056;-73
2021/12/22 13:17:22;;;;;;;7.10;5.15;;;9.70;99.90;;;;;;5071497;28;20039;-77
2021/12/22 13:19:53;;;;;;;8.30;5.93;;;9.70;99.90;;;;;;5070996;28;20029;-74
2021/12/22 13:22:46;;;;;;;9.77;5.40;;;9.70;99.90;;;;;;5070665;28;20373;-75